Current Conditions
Mostly Cloudy
Conditions




Pressure
1014.9 (hPa) - 29.97 (inHG)
Visibility

9.0 (km) - 5.6 (miles)
   Temperature
18  °C
64°F
15  °C
Dewpoint
83  %
 Humidity
   Wind Speed
11  km/h
6  kts
7  mph
3.1  m/s
   Wind Direction
 250°
West South
West
   Airport Data
LESO
Location San Sebastián Airport 25 km (15.54 mi)
Metar :LESO 291800Z 25006KT 170V330 9000 BKN020 OVC035 18/15 Q1015
Sun 30th June 19:00 pm
   Raw Metar Info
Raw METAR is the most common format in the world for the transmission of observational weather data. It is highly standardized through the International Civil Aviation Organization (ICAO), which allows it to be understood throughout most of the world.
   API Info
Data Provided by
https://www.checkwx.com/weather/LESO
   © Info
CSS/SVG/PHP scripts were developed by weather34.com for use in the weather34 template © 2015-2024

Guide Info provided by Metar-Wikipedia